Time;durP1;ratioP1;P1;durP2;ratioP2;P2;SDS_P1;SDS_P2;PMS_P1;PMS_P2;Temp;Humidity;BMP_temperature;BMP_pressure;BME280_temperature;BME280_humidity;BME280_pressure;Samples;Min_cycle;Max_cycle;Signal;HPM_P1;HPM_P2
2023/05/12 00:01:02;;;;;;;15.67;8.27;;;;;;;;;;5010778;28;20480;-67
2023/05/12 00:03:29;;;;;;;12.87;6.77;;;;;;;;;;5009954;28;20445;-67
2023/05/12 00:05:56;;;;;;;15.27;7.93;;;;;;;;;;5010415;28;20992;-67
2023/05/12 00:08:22;;;;;;;21.87;8.90;;;;;;;;;;5009710;28;20443;-67
2023/05/12 00:10:49;;;;;;;14.30;7.40;;;;;;;;;;5010005;28;20855;-67
2023/05/12 00:13:15;;;;;;;14.93;6.77;;;;;;;;;;5010231;28;20224;-67
2023/05/12 00:15:42;;;;;;;13.13;7.50;;;;;;;;;;5015900;28;20202;-67
2023/05/12 00:18:09;;;;;;;12.80;6.90;;;;;;;;;;5028516;28;20438;-67
2023/05/12 00:20:35;;;;;;;14.27;8.37;;;;;;;;;;5029267;28;20422;-67
2023/05/12 00:23:02;;;;;;;14.33;7.60;;;;;;;;;;5029543;28;20496;-67
2023/05/12 00:25:29;;;;;;;17.10;8.13;;;;;;;;;;5029578;28;20458;-67
2023/05/12 00:27:55;;;;;;;13.83;7.90;;;;;;;;;;5029956;28;20505;-67
2023/05/12 00:30:23;;;;;;;14.67;8.00;;;;;;;;;;5029639;28;20437;-67
2023/05/12 00:32:50;;;;;;;18.27;8.70;;;;;;;;;;5029160;28;20430;-67
2023/05/12 00:35:16;;;;;;;16.57;8.37;;;;;;;;;;5029634;28;20430;-67
2023/05/12 00:37:45;;;;;;;15.87;8.07;;;;;;;;;;5044380;28;20441;-67
2023/05/12 00:40:12;;;;;;;14.30;8.37;;;;;;;;;;5019018;28;20494;-67
2023/05/12 00:42:38;;;;;;;18.27;8.73;;;;;;;;;;5010041;28;20474;-67
2023/05/12 00:45:06;;;;;;;18.53;9.13;;;;;;;;;;5009676;28;20463;-67
2023/05/12 00:47:32;;;;;;;18.77;9.27;;;;;;;;;;5009790;28;20475;-67
2023/05/12 00:49:59;;;;;;;17.37;8.60;;;;;;;;;;4992181;28;20439;-67
2023/05/12 00:52:26;;;;;;;19.70;9.10;;;;;;;;;;4991783;28;20558;-67
2023/05/12 00:54:53;;;;;;;27.07;9.80;;;;;;;;;;5008802;28;20453;-67
2023/05/12 00:57:19;;;;;;;30.73;10.77;;;;;;;;;;5009702;28;20450;-67
2023/05/12 00:59:47;;;;;;;34.70;10.40;;;;;;;;;;4992074;28;20439;-67
2023/05/12 01:02:14;;;;;;;24.80;9.17;;;;;;;;;;4994958;28;20478;-67
2023/05/12 01:04:41;;;;;;;25.63;10.10;;;;;;;;;;5008150;28;20463;-67
2023/05/12 01:07:09;;;;;;;27.57;10.00;;;;;;;;;;5009536;28;20482;-67
2023/05/12 01:09:37;;;;;;;22.27;9.60;;;;;;;;;;4976218;28;20435;-67
2023/05/12 01:12:03;;;;;;;18.13;9.73;;;;;;;;;;4991724;28;20438;-67
2023/05/12 01:14:33;;;;;;;21.07;10.37;;;;;;;;;;5024445;28;20529;-67
2023/05/12 01:17:00;;;;;;;18.13;9.53;;;;;;;;;;5024993;28;20480;-67
2023/05/12 01:19:43;;;;;;;18.90;9.43;;;;;;;;;;5008930;28;20444;-67
2023/05/12 01:22:12;;;;;;;20.20;9.90;;;;;;;;;;5023931;28;20451;-67
2023/05/12 01:24:59;;;;;;;18.03;9.43;;;;;;;;;;5009280;28;20968;-67
2023/05/12 01:27:29;;;;;;;19.13;10.17;;;;;;;;;;5008941;28;20524;-67
2023/05/12 01:29:59;;;;;;;15.23;9.57;;;;;;;;;;5009301;28;20427;-67
2023/05/12 01:32:29;;;;;;;15.87;8.83;;;;;;;;;;4991737;28;20810;-67
2023/05/12 01:34:57;;;;;;;15.93;9.67;;;;;;;;;;5028276;28;20530;-67
2023/05/12 01:37:25;;;;;;;18.80;9.53;;;;;;;;;;5011469;28;20456;-67
2023/05/12 01:39:53;;;;;;;20.33;10.20;;;;;;;;;;4998457;28;20535;-67
2023/05/12 01:42:20;;;;;;;23.13;10.17;;;;;;;;;;5015081;28;20448;-67
2023/05/12 02:17:06;;;;;;;15.87;8.53;;;;;;;;;;5031077;28;20427;-67
2023/05/12 02:19:33;;;;;;;19.67;9.10;;;;;;;;;;5032094;28;20444;-67
2023/05/12 02:21:59;;;;;;;17.63;8.57;;;;;;;;;;5014388;28;20446;-67
2023/05/12 02:24:27;;;;;;;18.47;9.40;;;;;;;;;;5031330;28;20461;-67
2023/05/12 02:26:53;;;;;;;17.53;9.40;;;;;;;;;;5014247;28;20805;-66
2023/05/12 02:29:20;;;;;;;22.73;9.10;;;;;;;;;;5014036;28;20449;-67
2023/05/12 02:31:47;;;;;;;31.33;9.27;;;;;;;;;;5014029;28;20504;-66
2023/05/12 02:34:16;;;;;;;22.07;9.73;;;;;;;;;;5013993;28;20455;-67
2023/05/12 02:36:42;;;;;;;19.60;10.00;;;;;;;;;;5014497;28;20862;-67
2023/05/12 02:39:10;;;;;;;23.40;10.17;;;;;;;;;;5031573;28;20441;-67
2023/05/12 02:41:37;;;;;;;26.37;9.93;;;;;;;;;;5013937;28;20445;-67
2023/05/12 02:44:05;;;;;;;17.67;8.83;;;;;;;;;;5013240;28;20436;-67
2023/05/12 02:46:32;;;;;;;23.40;9.50;;;;;;;;;;5031537;28;20508;-67
2023/05/12 02:48:59;;;;;;;31.23;10.93;;;;;;;;;;5032002;28;20515;-67
2023/05/12 02:51:26;;;;;;;32.70;10.50;;;;;;;;;;5000888;28;20451;-67
2023/05/12 02:53:52;;;;;;;30.37;10.77;;;;;;;;;;4974873;28;20455;-67
2023/05/12 02:56:19;;;;;;;28.47;9.90;;;;;;;;;;4992196;28;20469;-68
2023/05/12 02:58:46;;;;;;;22.07;9.80;;;;;;;;;;4974532;28;20452;-67
2023/05/12 03:01:13;;;;;;;24.57;10.73;;;;;;;;;;4991963;28;20491;-68
2023/05/12 03:03:40;;;;;;;24.23;10.43;;;;;;;;;;4974913;28;20450;-65
2023/05/12 03:06:07;;;;;;;16.90;9.13;;;;;;;;;;4991606;28;20435;-66
2023/05/12 03:08:33;;;;;;;18.00;9.37;;;;;;;;;;4991855;28;20474;-66
2023/05/12 03:11:01;;;;;;;17.47;10.43;;;;;;;;;;4974292;28;20860;-66
2023/05/12 03:13:27;;;;;;;21.50;8.37;;;;;;;;;;4974344;28;20500;-66
2023/05/12 03:15:54;;;;;;;17.63;10.00;;;;;;;;;;4988408;28;20449;-66
2023/05/12 03:18:22;;;;;;;17.40;9.37;;;;;;;;;;4992063;28;20475;-66
2023/05/12 03:20:49;;;;;;;17.17;9.17;;;;;;;;;;4974142;28;20445;-66
2023/05/12 03:23:16;;;;;;;18.50;8.83;;;;;;;;;;4989994;28;20476;-66
2023/05/12 03:25:43;;;;;;;20.13;9.37;;;;;;;;;;4974010;28;20446;-66
2023/05/12 03:28:10;;;;;;;20.77;9.00;;;;;;;;;;4991783;28;20528;-67
2023/05/12 03:30:37;;;;;;;16.17;9.00;;;;;;;;;;4974362;28;20534;-66
2023/05/12 03:33:03;;;;;;;13.00;8.63;;;;;;;;;;4983323;28;20454;-65
2023/05/12 03:35:30;;;;;;;12.47;8.50;;;;;;;;;;4973717;28;20447;-66
2023/05/12 03:38:00;;;;;;;16.63;8.73;;;;;;;;;;4979613;28;20441;-66
2023/05/12 03:40:27;;;;;;;15.73;8.03;;;;;;;;;;5003241;28;20458;-65
2023/05/12 03:42:54;;;;;;;15.77;8.20;;;;;;;;;;5008410;28;20446;-65
2023/05/12 03:45:20;;;;;;;16.93;8.63;;;;;;;;;;5006790;28;20500;-67
2023/05/12 03:47:49;;;;;;;20.30;9.03;;;;;;;;;;5007240;28;20496;-67
2023/05/12 03:50:17;;;;;;;15.17;8.43;;;;;;;;;;4989360;28;21070;-66
2023/05/12 03:52:44;;;;;;;22.03;9.13;;;;;;;;;;4988900;28;20449;-65
2023/05/12 03:55:11;;;;;;;18.13;8.23;;;;;;;;;;5007003;28;20530;-66
2023/05/12 03:57:37;;;;;;;17.67;9.10;;;;;;;;;;5007760;28;20427;-67
2023/05/12 04:00:04;;;;;;;18.63;8.70;;;;;;;;;;4988791;28;20838;-68
2023/05/12 04:02:38;;;;;;;13.60;7.43;;;;;;;;;;5007621;28;20451;-67
2023/05/12 04:05:07;;;;;;;24.30;7.97;;;;;;;;;;5005656;28;20204;-67
2023/05/12 04:07:34;;;;;;;15.93;7.57;;;;;;;;;;4973701;28;20212;-67
2023/05/12 04:10:02;;;;;;;24.90;8.17;;;;;;;;;;5006398;28;20774;-66
2023/05/12 04:12:28;;;;;;;13.50;7.23;;;;;;;;;;4989425;28;20195;-69
2023/05/12 04:14:56;;;;;;;19.83;7.53;;;;;;;;;;4989175;28;20188;-68
2023/05/12 04:17:23;;;;;;;65.63;10.30;;;;;;;;;;5007518;28;20876;-68
2023/05/12 04:19:52;;;;;;;48.97;9.93;;;;;;;;;;4989582;28;20226;-68
2023/05/12 04:22:19;;;;;;;42.93;9.57;;;;;;;;;;4988851;28;20250;-65
2023/05/12 04:24:45;;;;;;;36.30;8.33;;;;;;;;;;5006996;28;20311;-66
2023/05/12 04:27:12;;;;;;;38.83;9.17;;;;;;;;;;4985106;28;20223;-66
2023/05/12 04:29:41;;;;;;;25.37;8.07;;;;;;;;;;4983562;28;20552;-66
2023/05/12 04:32:07;;;;;;;38.13;9.80;;;;;;;;;;4988175;28;20207;-66
2023/05/12 04:34:35;;;;;;;24.73;7.23;;;;;;;;;;4983810;28;20614;-66
2023/05/12 04:37:03;;;;;;;26.20;7.70;;;;;;;;;;4984750;28;20246;-66
2023/05/12 04:39:30;;;;;;;22.40;7.50;;;;;;;;;;4971977;28;20231;-65
2023/05/12 04:41:58;;;;;;;23.63;8.00;;;;;;;;;;4988080;28;20242;-66
2023/05/12 04:44:26;;;;;;;21.40;7.83;;;;;;;;;;4986323;28;20199;-68
2023/05/12 04:46:55;;;;;;;14.80;6.80;;;;;;;;;;4986784;28;20218;-65
2023/05/12 04:49:23;;;;;;;10.70;5.80;;;;;;;;;;4977482;28;20232;-65
2023/05/12 04:51:55;;;;;;;15.47;6.30;;;;;;;;;;5001282;28;20191;-66
2023/05/12 04:54:21;;;;;;;14.47;5.50;;;;;;;;;;4986960;28;20211;-65
2023/05/12 04:56:48;;;;;;;16.70;5.87;;;;;;;;;;4987069;28;20200;-64
2023/05/12 04:59:15;;;;;;;13.33;5.73;;;;;;;;;;5003894;28;20242;-65
2023/05/12 05:01:43;;;;;;;15.13;5.80;;;;;;;;;;4988265;28;20212;-65
2023/05/12 05:04:11;;;;;;;9.63;4.93;;;;;;;;;;4972997;28;20204;-65
2023/05/12 05:06:38;;;;;;;15.20;5.80;;;;;;;;;;4973087;28;20196;-68
2023/05/12 05:09:06;;;;;;;13.90;5.30;;;;;;;;;;4972744;28;20258;-65
2023/05/12 05:11:33;;;;;;;11.57;5.37;;;;;;;;;;5004100;28;20204;-65
2023/05/12 05:14:00;;;;;;;9.90;4.47;;;;;;;;;;4988696;28;20238;-67
2023/05/12 05:16:27;;;;;;;11.47;4.77;;;;;;;;;;4988148;28;20196;-67
2023/05/12 05:18:54;;;;;;;7.83;4.53;;;;;;;;;;4988071;28;20571;-65
2023/05/12 05:21:24;;;;;;;7.67;4.60;;;;;;;;;;4968330;28;20195;-67
2023/05/12 05:23:51;;;;;;;7.97;4.17;;;;;;;;;;4982318;28;20380;-67
2023/05/12 05:26:20;;;;;;;5.73;3.63;;;;;;;;;;5023819;28;20194;-66
2023/05/12 05:28:47;;;;;;;6.17;3.63;;;;;;;;;;5024823;28;20277;-66
2023/05/12 05:31:14;;;;;;;8.53;3.73;;;;;;;;;;5006393;28;20209;-66
2023/05/12 05:33:41;;;;;;;5.57;3.67;;;;;;;;;;5007467;28;20249;-67
2023/05/12 05:36:09;;;;;;;8.27;3.47;;;;;;;;;;5026181;28;20281;-65
2023/05/12 05:38:36;;;;;;;9.20;3.87;;;;;;;;;;5007374;28;20241;-64
2023/05/12 05:41:03;;;;;;;6.57;3.23;;;;;;;;;;5026311;28;20191;-65
2023/05/12 05:43:30;;;;;;;10.80;4.20;;;;;;;;;;5029020;28;20569;-64
2023/05/12 05:45:58;;;;;;;6.27;4.03;;;;;;;;;;5007525;28;20203;-65
2023/05/12 05:48:25;;;;;;;6.67;3.50;;;;;;;;;;4991362;28;20216;-65
2023/05/12 05:50:52;;;;;;;9.70;3.60;;;;;;;;;;4991681;28;20196;-64
2023/05/12 05:53:21;;;;;;;12.13;3.87;;;;;;;;;;5009803;28;20191;-67
2023/05/12 05:55:49;;;;;;;6.77;3.30;;;;;;;;;;5003812;28;20228;-67
2023/05/12 05:58:16;;;;;;;8.40;3.73;;;;;;;;;;4990957;28;20206;-65
2023/05/12 06:00:44;;;;;;;9.43;3.30;;;;;;;;;;5026486;28;20913;-67
2023/05/12 06:03:11;;;;;;;6.50;3.63;;;;;;;;;;5023303;28;20214;-67
2023/05/12 06:05:42;;;;;;;7.37;3.33;;;;;;;;;;4988571;28;20642;-67
2023/05/12 06:08:12;;;;;;;6.73;3.00;;;;;;;;;;5011433;28;20242;-66
2023/05/12 06:10:40;;;;;;;6.93;3.37;;;;;;;;;;5025437;28;20196;-67
2023/05/12 06:13:06;;;;;;;5.33;3.00;;;;;;;;;;5006549;28;20526;-68
2023/05/12 06:15:33;;;;;;;5.40;3.03;;;;;;;;;;4991625;28;20192;-67
2023/05/12 06:17:59;;;;;;;9.13;3.67;;;;;;;;;;5022458;28;20195;-65
2023/05/12 06:20:26;;;;;;;7.70;3.23;;;;;;;;;;5010202;28;20199;-65
2023/05/12 06:22:53;;;;;;;9.57;3.00;;;;;;;;;;5007586;28;20458;-65
2023/05/12 06:25:20;;;;;;;5.40;3.17;;;;;;;;;;5016334;28;20295;-70
2023/05/12 06:27:51;;;;;;;5.70;3.07;;;;;;;;;;5008077;28;20294;-67
2023/05/12 06:30:18;;;;;;;9.27;3.30;;;;;;;;;;5003446;28;20606;-66
2023/05/12 06:32:45;;;;;;;12.67;3.50;;;;;;;;;;4990446;28;20203;-66
2023/05/12 06:35:11;;;;;;;7.57;2.83;;;;;;;;;;5016641;28;20191;-67
2023/05/12 06:37:38;;;;;;;6.40;3.00;;;;;;;;;;5018114;28;20259;-65
2023/05/12 06:40:06;;;;;;;9.43;3.37;;;;;;;;;;5010571;28;20184;-66
2023/05/12 06:42:32;;;;;;;9.07;3.37;;;;;;;;;;5019553;28;20187;-68
2023/05/12 06:45:07;;;;;;;5.30;3.30;;;;;;;;;;4995103;28;20970;-68
2023/05/12 06:47:34;;;;;;;12.73;3.57;;;;;;;;;;4997211;28;20203;-68
2023/05/12 06:50:01;;;;;;;7.27;3.13;;;;;;;;;;5011782;28;20202;-68
2023/05/12 06:52:28;;;;;;;7.87;3.43;;;;;;;;;;5005884;28;20711;-66
2023/05/12 06:54:55;;;;;;;7.53;3.07;;;;;;;;;;5012375;28;20525;-67
2023/05/12 06:57:21;;;;;;;6.93;3.47;;;;;;;;;;5020295;28;20271;-67
2023/05/12 06:59:48;;;;;;;8.60;2.90;;;;;;;;;;5012821;28;20202;-67
2023/05/12 07:02:20;;;;;;;6.60;3.27;;;;;;;;;;5008088;28;20212;-69
2023/05/12 07:04:46;;;;;;;7.80;2.70;;;;;;;;;;4997573;28;20196;-68
2023/05/12 07:07:13;;;;;;;4.47;3.07;;;;;;;;;;5010160;28;20258;-67
2023/05/12 07:09:41;;;;;;;5.67;3.13;;;;;;;;;;5028292;28;20211;-66
2023/05/12 07:12:09;;;;;;;5.43;2.97;;;;;;;;;;5012178;28;20195;-67
2023/05/12 07:14:36;;;;;;;5.63;3.10;;;;;;;;;;5016113;28;20180;-69
2023/05/12 07:17:03;;;;;;;5.50;2.80;;;;;;;;;;5012119;28;20195;-68
2023/05/12 07:19:29;;;;;;;5.50;2.67;;;;;;;;;;5028080;28;20287;-67
2023/05/12 07:21:57;;;;;;;6.30;3.20;;;;;;;;;;5028225;28;20278;-66
2023/05/12 07:24:24;;;;;;;6.83;3.00;;;;;;;;;;5000222;28;20232;-66
2023/05/12 07:26:51;;;;;;;9.20;3.00;;;;;;;;;;4993051;28;20246;-66
2023/05/12 07:29:18;;;;;;;5.87;2.77;;;;;;;;;;5024694;28;20314;-66
2023/05/12 07:31:44;;;;;;;6.07;2.83;;;;;;;;;;5009988;28;20541;-63
2023/05/12 07:34:11;;;;;;;6.40;2.90;;;;;;;;;;5018888;28;20192;-64
2023/05/12 07:36:38;;;;;;;7.70;2.40;;;;;;;;;;5009369;28;20299;-64
2023/05/12 07:39:06;;;;;;;5.10;2.60;;;;;;;;;;5010196;28;20195;-66
2023/05/12 07:41:32;;;;;;;5.77;2.73;;;;;;;;;;5028457;28;20707;-67
2023/05/12 07:44:00;;;;;;;5.70;2.80;;;;;;;;;;5018774;28;20188;-67
2023/05/12 07:46:27;;;;;;;5.93;2.93;;;;;;;;;;5027764;28;20193;-66
2023/05/12 07:48:53;;;;;;;3.70;2.53;;;;;;;;;;5020768;28;20212;-66
2023/05/12 07:51:21;;;;;;;5.93;2.30;;;;;;;;;;4971174;28;20177;-64
2023/05/12 07:53:47;;;;;;;3.90;2.47;;;;;;;;;;5010143;28;20207;-63
2023/05/12 07:56:14;;;;;;;5.37;2.80;;;;;;;;;;5007711;28;20188;-63
2023/05/12 07:58:41;;;;;;;3.70;2.80;;;;;;;;;;5020587;28;20191;-66
2023/05/12 08:01:09;;;;;;;3.80;2.63;;;;;;;;;;5028028;28;20199;-65
2023/05/12 08:03:36;;;;;;;5.80;2.77;;;;;;;;;;5024489;28;20196;-69
2023/05/12 08:06:06;;;;;;;4.43;2.70;;;;;;;;;;5019472;28;20242;-69
2023/05/12 08:08:33;;;;;;;4.70;2.80;;;;;;;;;;4996362;28;20216;-64
2023/05/12 08:11:00;;;;;;;3.10;2.40;;;;;;;;;;4999288;28;20358;-67
2023/05/12 08:13:30;;;;;;;5.43;2.53;;;;;;;;;;5025242;28;20223;-66
2023/05/12 08:15:56;;;;;;;3.80;2.50;;;;;;;;;;4990811;28;20230;-66
2023/05/12 08:18:23;;;;;;;5.93;2.60;;;;;;;;;;5015549;28;20195;-64
2023/05/12 08:20:50;;;;;;;4.20;2.63;;;;;;;;;;5027329;28;20207;-65
2023/05/12 08:23:19;;;;;;;3.80;2.60;;;;;;;;;;5026000;28;20238;-66
2023/05/12 08:25:47;;;;;;;4.20;2.60;;;;;;;;;;4987017;28;20193;-67
2023/05/12 08:28:14;;;;;;;4.80;2.50;;;;;;;;;;5001020;28;20298;-64
2023/05/12 08:30:45;;;;;;;4.27;2.50;;;;;;;;;;5023252;28;20195;-65
2023/05/12 08:33:12;;;;;;;5.20;2.40;;;;;;;;;;5027315;28;20188;-65
2023/05/12 08:35:39;;;;;;;4.77;2.50;;;;;;;;;;4989931;28;20200;-66
2023/05/12 08:38:10;;;;;;;5.70;2.57;;;;;;;;;;5012940;28;20183;-65
2023/05/12 08:40:38;;;;;;;4.70;2.40;;;;;;;;;;5026709;28;20782;-65
2023/05/12 08:43:11;;;;;;;5.97;2.67;;;;;;;;;;5000783;28;20204;-65
2023/05/12 08:45:38;;;;;;;5.43;2.70;;;;;;;;;;5013883;28;20201;-65
2023/05/12 08:48:08;;;;;;;5.83;2.20;;;;;;;;;;5025726;28;20219;-65
2023/05/12 08:50:35;;;;;;;6.47;2.33;;;;;;;;;;5017572;28;20196;-66
2023/05/12 08:53:06;;;;;;;3.30;2.40;;;;;;;;;;5026020;28;20199;-65
2023/05/12 08:55:33;;;;;;;3.67;2.40;;;;;;;;;;5013500;28;20280;-67
2023/05/12 08:58:01;;;;;;;6.57;2.30;;;;;;;;;;5026602;28;20187;-65
2023/05/12 09:00:30;;;;;;;3.93;2.40;;;;;;;;;;5023801;28;20184;-66
2023/05/12 09:02:57;;;;;;;5.60;2.40;;;;;;;;;;5026072;28;20199;-67
2023/05/12 09:05:23;;;;;;;3.03;2.13;;;;;;;;;;5013663;28;20183;-65
2023/05/12 09:07:50;;;;;;;11.70;2.33;;;;;;;;;;5008284;28;20187;-65
2023/05/12 09:10:17;;;;;;;4.57;2.30;;;;;;;;;;5026347;28;20196;-68
2023/05/12 09:13:16;;;;;;;3.83;2.00;;;;;;;;;;4983107;28;20314;-66
2023/05/12 09:15:44;;;;;;;6.60;3.07;;;;;;;;;;5006546;28;20719;-65
2023/05/12 09:18:10;;;;;;;4.87;2.90;;;;;;;;;;5020460;28;20210;-64
2023/05/12 09:20:37;;;;;;;4.40;2.63;;;;;;;;;;5014726;28;20199;-65
2023/05/12 09:23:14;;;;;;;8.13;3.17;;;;;;;;;;5009323;28;20234;-65
2023/05/12 09:25:40;;;;;;;5.43;2.50;;;;;;;;;;5023131;28;20262;-64
2023/05/12 09:28:07;;;;;;;5.33;1.93;;;;;;;;;;5025319;28;20652;-64
2023/05/12 09:30:37;;;;;;;3.40;2.10;;;;;;;;;;5025682;28;20652;-65
2023/05/12 09:33:04;;;;;;;3.13;2.33;;;;;;;;;;5025106;28;20184;-66
2023/05/12 09:35:31;;;;;;;6.77;2.30;;;;;;;;;;5006387;28;20199;-70
2023/05/12 09:38:04;;;;;;;10.37;2.60;;;;;;;;;;5032636;28;20287;-64
2023/05/12 09:40:31;;;;;;;5.13;2.80;;;;;;;;;;5024181;28;20193;-67
2023/05/12 09:42:57;;;;;;;4.03;1.90;;;;;;;;;;5025656;28;20184;-65
2023/05/12 09:45:24;;;;;;;6.10;2.30;;;;;;;;;;5007413;28;20662;-66
2023/05/12 09:47:51;;;;;;;4.00;1.90;;;;;;;;;;5025185;28;20247;-65
2023/05/12 09:50:18;;;;;;;4.93;1.90;;;;;;;;;;5008072;28;20211;-67
2023/05/12 09:52:44;;;;;;;4.47;1.90;;;;;;;;;;5025516;28;20194;-67
2023/05/12 09:55:12;;;;;;;5.60;2.10;;;;;;;;;;5010331;28;20641;-67
2023/05/12 09:57:40;;;;;;;4.17;1.87;;;;;;;;;;5029436;28;20188;-66
2023/05/12 10:00:07;;;;;;;7.77;2.40;;;;;;;;;;5025378;28;20187;-67
2023/05/12 10:02:53;;;;;;;3.80;2.03;;;;;;;;;;5026621;28;20254;-64
2023/05/12 10:05:20;;;;;;;3.90;2.10;;;;;;;;;;5013533;28;20212;-65
2023/05/12 10:07:49;;;;;;;3.37;2.10;;;;;;;;;;5013354;28;20236;-64
2023/05/12 10:10:20;;;;;;;3.60;2.20;;;;;;;;;;5031616;28;20222;-66
2023/05/12 10:12:48;;;;;;;4.03;2.20;;;;;;;;;;5030876;28;20246;-65
2023/05/12 10:15:16;;;;;;;4.53;2.10;;;;;;;;;;5023373;28;20309;-66
2023/05/12 10:17:44;;;;;;;4.63;2.00;;;;;;;;;;5029364;28;20828;-64
2023/05/12 10:20:10;;;;;;;7.17;2.47;;;;;;;;;;5029398;28;20192;-64
2023/05/12 10:22:37;;;;;;;4.57;1.93;;;;;;;;;;5026871;28;20654;-66
2023/05/12 10:25:04;;;;;;;3.80;2.33;;;;;;;;;;5008767;28;20192;-66
2023/05/12 10:27:32;;;;;;;6.63;2.43;;;;;;;;;;4991505;28;20192;-66
2023/05/12 10:30:00;;;;;;;5.23;2.40;;;;;;;;;;5000554;28;20221;-63
2023/05/12 10:32:27;;;;;;;5.50;2.17;;;;;;;;;;4991148;28;20905;-65
2023/05/12 10:35:11;;;;;;;3.27;2.20;;;;;;;;;;4991312;28;20986;-70
2023/05/12 10:37:38;;;;;;;9.97;2.87;;;;;;;;;;4991036;28;20192;-67
2023/05/12 10:40:10;;;;;;;5.40;2.10;;;;;;;;;;4991578;28;20200;-66
2023/05/12 10:42:37;;;;;;;5.17;2.20;;;;;;;;;;5008893;28;20644;-65
2023/05/12 10:45:13;;;;;;;5.90;2.10;;;;;;;;;;5009061;28;20188;-65
2023/05/12 10:47:41;;;;;;;6.43;2.20;;;;;;;;;;5008246;28;20219;-67
2023/05/12 10:50:08;;;;;;;6.50;2.30;;;;;;;;;;5007930;28;20291;-63
2023/05/12 10:52:34;;;;;;;6.13;2.20;;;;;;;;;;4974971;28;20683;-69
2023/05/12 10:55:02;;;;;;;3.37;1.80;;;;;;;;;;4971807;28;20209;-67
2023/05/12 10:57:31;;;;;;;3.20;2.20;;;;;;;;;;4996312;28;20185;-70
2023/05/12 11:00:00;;;;;;;3.10;2.20;;;;;;;;;;4992558;28;20195;-68
2023/05/12 11:02:31;;;;;;;4.00;2.17;;;;;;;;;;5009316;28;20198;-66
2023/05/12 11:05:03;;;;;;;4.53;2.30;;;;;;;;;;4989227;28;20182;-66
2023/05/12 11:07:30;;;;;;;4.93;2.63;;;;;;;;;;4991907;28;20194;-66
2023/05/12 11:10:00;;;;;;;5.70;2.20;;;;;;;;;;5008433;28;20237;-66
2023/05/12 11:12:28;;;;;;;6.10;2.50;;;;;;;;;;5008604;28;20313;-68
2023/05/12 11:14:57;;;;;;;2.77;2.20;;;;;;;;;;4977998;28;20198;-69
2023/05/12 11:17:24;;;;;;;3.43;2.13;;;;;;;;;;4990659;28;20252;-68
2023/05/12 11:19:51;;;;;;;3.17;1.97;;;;;;;;;;5006804;28;20233;-68
2023/05/12 11:22:20;;;;;;;3.60;2.20;;;;;;;;;;4991414;28;20970;-72
2023/05/12 11:24:47;;;;;;;3.60;1.83;;;;;;;;;;5007932;28;20233;-67
2023/05/12 11:27:15;;;;;;;5.67;2.30;;;;;;;;;;4991583;28;20201;-68
2023/05/12 11:29:42;;;;;;;6.73;2.03;;;;;;;;;;5008253;28;20242;-70
2023/05/12 11:32:09;;;;;;;7.73;2.47;;;;;;;;;;5008920;28;20200;-67
2023/05/12 11:34:37;;;;;;;2.87;2.10;;;;;;;;;;4990857;28;20190;-67
2023/05/12 11:37:04;;;;;;;4.83;1.80;;;;;;;;;;4988523;28;20194;-68
2023/05/12 11:39:32;;;;;;;2.50;2.00;;;;;;;;;;5007171;28;20243;-67
2023/05/12 11:42:08;;;;;;;5.97;2.30;;;;;;;;;;4990661;28;20586;-66
2023/05/12 11:44:45;;;;;;;6.80;2.00;;;;;;;;;;5007926;28;20352;-66
2023/05/12 11:47:12;;;;;;;5.80;2.10;;;;;;;;;;5008627;28;20198;-67
2023/05/12 11:49:49;;;;;;;4.20;2.20;;;;;;;;;;4990829;28;20208;-65
2023/05/12 11:52:17;;;;;;;4.13;1.90;;;;;;;;;;5007518;28;20195;-67
2023/05/12 11:54:59;;;;;;;2.73;1.90;;;;;;;;;;4990051;28;20645;-66
2023/05/12 11:57:30;;;;;;;4.37;1.83;;;;;;;;;;5007892;28;20995;-66
2023/05/12 12:00:04;;;;;;;3.17;2.00;;;;;;;;;;5007798;28;20653;-66
2023/05/12 12:02:35;;;;;;;3.50;2.00;;;;;;;;;;4989756;28;20203;-66
2023/05/12 12:05:02;;;;;;;5.97;2.17;;;;;;;;;;4990105;28;20189;-65
2023/05/12 12:07:32;;;;;;;5.27;1.80;;;;;;;;;;5007115;28;20193;-66
2023/05/12 12:10:11;;;;;;;3.73;1.60;;;;;;;;;;5007925;28;20249;-64
2023/05/12 12:12:38;;;;;;;3.23;1.80;;;;;;;;;;5007447;28;20236;-65
2023/05/12 12:15:06;;;;;;;4.33;1.77;;;;;;;;;;5007780;28;20796;-63
2023/05/12 12:17:32;;;;;;;6.37;1.90;;;;;;;;;;5003589;28;20254;-65
2023/05/12 12:19:59;;;;;;;5.97;1.80;;;;;;;;;;5005111;28;20232;-64
2023/05/12 12:22:26;;;;;;;6.90;2.00;;;;;;;;;;4987418;28;20202;-67
2023/05/12 12:24:53;;;;;;;3.97;1.77;;;;;;;;;;5006951;28;20239;-66
2023/05/12 12:27:19;;;;;;;5.23;1.67;;;;;;;;;;5007223;28;20191;-65
2023/05/12 12:29:46;;;;;;;4.23;2.00;;;;;;;;;;5006816;28;20228;-65
2023/05/12 12:32:13;;;;;;;3.47;1.80;;;;;;;;;;5007700;28;20541;-66
2023/05/12 12:34:40;;;;;;;4.67;1.60;;;;;;;;;;5006215;28;20225;-66
2023/05/12 12:37:06;;;;;;;4.70;1.90;;;;;;;;;;5003473;28;20315;-66
2023/05/12 12:39:33;;;;;;;4.00;1.80;;;;;;;;;;5006664;28;20196;-66
2023/05/12 12:42:01;;;;;;;4.17;2.00;;;;;;;;;;5007276;28;20540;-64
2023/05/12 12:44:28;;;;;;;6.97;2.23;;;;;;;;;;5006572;28;20303;-65
2023/05/12 12:46:55;;;;;;;11.47;1.93;;;;;;;;;;5006986;28;20247;-65
2023/05/12 12:49:22;;;;;;;4.63;1.97;;;;;;;;;;5006444;28;20241;-66
2023/05/12 12:51:48;;;;;;;2.77;1.93;;;;;;;;;;5006479;28;20227;-65
2023/05/12 12:54:15;;;;;;;3.47;1.53;;;;;;;;;;4990071;28;20219;-66
2023/05/12 12:56:43;;;;;;;2.60;1.80;;;;;;;;;;4987796;28;20274;-66
2023/05/12 12:59:10;;;;;;;5.03;1.93;;;;;;;;;;5005519;28;20198;-64
2023/05/12 13:01:38;;;;;;;4.70;1.83;;;;;;;;;;5002379;28;20198;-65
2023/05/12 13:04:08;;;;;;;4.20;1.80;;;;;;;;;;5005123;28;20626;-65
2023/05/12 13:06:34;;;;;;;2.77;2.00;;;;;;;;;;5005736;28;20221;-66
2023/05/12 13:09:02;;;;;;;9.87;2.30;;;;;;;;;;4986844;28;20703;-65
2023/05/12 13:11:29;;;;;;;3.67;1.90;;;;;;;;;;5005445;28;20198;-65
2023/05/12 13:13:56;;;;;;;4.23;1.80;;;;;;;;;;5004782;28;20513;-65
2023/05/12 13:16:22;;;;;;;6.53;1.93;;;;;;;;;;5006791;28;20196;-65
2023/05/12 13:18:49;;;;;;;2.77;1.90;;;;;;;;;;5006358;28;20597;-67
2023/05/12 13:21:17;;;;;;;1.93;1.60;;;;;;;;;;5004998;28;20363;-65
2023/05/12 13:23:44;;;;;;;3.47;1.80;;;;;;;;;;5003798;28;20283;-65
2023/05/12 13:26:12;;;;;;;2.50;1.73;;;;;;;;;;5006885;28;20216;-65
2023/05/12 13:28:39;;;;;;;5.03;1.63;;;;;;;;;;5008488;28;20205;-66
2023/05/12 13:31:06;;;;;;;6.93;1.83;;;;;;;;;;5010892;28;20220;-66
2023/05/12 13:33:33;;;;;;;4.17;1.77;;;;;;;;;;5009943;28;20190;-65
2023/05/12 13:36:00;;;;;;;3.53;1.80;;;;;;;;;;5005748;28;20204;-66
2023/05/12 13:38:26;;;;;;;2.60;1.87;;;;;;;;;;5008903;28;20184;-65
2023/05/12 13:40:53;;;;;;;6.17;1.83;;;;;;;;;;5009415;28;20196;-65
2023/05/12 13:43:20;;;;;;;1.90;1.60;;;;;;;;;;5004173;28;20293;-66
2023/05/12 13:45:47;;;;;;;4.30;1.90;;;;;;;;;;5010030;28;20184;-66
2023/05/12 13:48:13;;;;;;;6.83;2.30;;;;;;;;;;5009318;28;20526;-65
2023/05/12 13:50:40;;;;;;;3.77;2.03;;;;;;;;;;5006476;28;20217;-66
2023/05/12 13:53:07;;;;;;;4.90;1.67;;;;;;;;;;4992449;28;20200;-65
2023/05/12 13:55:37;;;;;;;4.53;1.97;;;;;;;;;;5010382;28;20275;-65
2023/05/12 13:58:06;;;;;;;4.00;1.50;;;;;;;;;;5010200;28;20280;-65
2023/05/12 14:00:33;;;;;;;4.30;1.80;;;;;;;;;;5011375;28;20786;-64
2023/05/12 14:03:00;;;;;;;5.30;1.80;;;;;;;;;;5011643;28;20196;-63
2023/05/12 14:05:27;;;;;;;4.43;2.03;;;;;;;;;;5010245;28;20207;-64
2023/05/12 14:07:54;;;;;;;5.63;1.97;;;;;;;;;;5009056;28;20195;-64
2023/05/12 14:10:21;;;;;;;4.63;2.00;;;;;;;;;;4989626;28;20221;-65
2023/05/12 14:12:48;;;;;;;6.83;2.00;;;;;;;;;;5011073;28;20779;-63
2023/05/12 14:15:14;;;;;;;4.50;1.80;;;;;;;;;;5011402;28;20197;-66
2023/05/12 14:17:44;;;;;;;9.53;2.63;;;;;;;;;;4994038;28;20285;-67
2023/05/12 14:20:11;;;;;;;5.10;2.20;;;;;;;;;;5011794;28;20192;-67
2023/05/12 14:22:38;;;;;;;3.97;2.00;;;;;;;;;;5001346;28;20227;-67
2023/05/12 14:25:05;;;;;;;2.03;1.80;;;;;;;;;;5030909;28;20221;-67
2023/05/12 14:27:34;;;;;;;4.07;2.17;;;;;;;;;;5012165;28;20682;-66
2023/05/12 14:30:00;;;;;;;8.63;2.40;;;;;;;;;;5030214;28;20314;-67
2023/05/12 14:32:29;;;;;;;8.50;2.47;;;;;;;;;;5029220;28;20202;-67
2023/05/12 14:34:56;;;;;;;5.23;2.50;;;;;;;;;;5030252;28;20188;-68
2023/05/12 14:37:23;;;;;;;5.70;2.10;;;;;;;;;;5030341;28;20636;-67
2023/05/12 14:39:50;;;;;;;13.17;3.27;;;;;;;;;;5030071;28;20219;-66
2023/05/12 14:42:18;;;;;;;6.73;2.10;;;;;;;;;;5025507;28;20200;-66
2023/05/12 14:44:45;;;;;;;8.37;2.40;;;;;;;;;;5030818;28;20197;-65
2023/05/12 14:47:12;;;;;;;3.13;2.10;;;;;;;;;;5023712;28;20191;-64
2023/05/12 14:49:39;;;;;;;3.53;2.30;;;;;;;;;;5026322;28;20687;-64
2023/05/12 14:52:08;;;;;;;7.30;2.27;;;;;;;;;;5026927;28;20188;-61
2023/05/12 14:54:34;;;;;;;46.93;6.37;;;;;;;;;;5032006;28;20241;-64
2023/05/12 14:57:02;;;;;;;10.07;2.57;;;;;;;;;;5032924;28;20208;-64
2023/05/12 14:59:29;;;;;;;5.47;2.23;;;;;;;;;;5033178;28;20196;-64
2023/05/12 15:01:55;;;;;;;7.20;2.30;;;;;;;;;;5032547;28;20566;-64
2023/05/12 15:04:23;;;;;;;4.67;2.40;;;;;;;;;;5031803;28;20191;-65
2023/05/12 15:06:49;;;;;;;2.80;1.80;;;;;;;;;;5014487;28;20677;-64
2023/05/12 15:09:16;;;;;;;4.73;2.20;;;;;;;;;;5032513;28;20187;-62
2023/05/12 15:11:45;;;;;;;5.17;2.13;;;;;;;;;;5033021;28;20227;-57
2023/05/12 15:14:11;;;;;;;6.57;2.10;;;;;;;;;;5032429;28;20654;-58